createdAt,value
2023-04-16T00:01:22.329Z,102257.34
2023-04-16T00:03:49.072Z,102261.41
2023-04-16T00:06:15.705Z,102256.66
2023-04-16T00:08:43.534Z,102258.19
2023-04-16T00:11:09.988Z,102257.81
2023-04-16T00:13:36.864Z,102256.03
2023-04-16T00:16:03.289Z,102256.97
2023-04-16T00:18:29.744Z,102257.25
2023-04-16T00:20:56.390Z,102255.13
2023-04-16T00:23:24.984Z,102244.59
2023-04-16T00:25:51.741Z,102242.78
2023-04-16T00:28:18.203Z,102242.31
2023-04-16T00:30:44.665Z,102242.44
2023-04-16T00:33:11.229Z,102245.59
2023-04-16T00:35:37.765Z,102245.22
2023-04-16T00:38:04.115Z,102237.31
2023-04-16T00:40:30.799Z,102238.16
2023-04-16T00:42:57.247Z,102238.84
2023-04-16T00:45:23.745Z,102243.63
2023-04-16T00:47:50.398Z,102239.06
2023-04-16T00:50:19.180Z,102242.53
2023-04-16T00:52:48.133Z,102247.34
2023-04-16T00:55:17.622Z,102248.47
2023-04-16T00:57:45.023Z,102246.13
2023-04-16T01:00:12.169Z,102246.72
2023-04-16T01:02:39.819Z,102244.88
2023-04-16T01:05:06.801Z,102250.25
2023-04-16T01:07:33.341Z,102250.56
2023-04-16T01:09:59.817Z,102251.97
2023-04-16T01:12:26.285Z,102247.81
2023-04-16T01:14:52.921Z,102251.09
2023-04-16T01:17:19.382Z,102254.47
2023-04-16T01:19:45.950Z,102253.47
2023-04-16T01:22:12.420Z,102258.72
2023-04-16T01:24:40.482Z,102254.03
2023-04-16T01:27:09.980Z,102254.88
2023-04-16T01:29:36.605Z,102260.00
2023-04-16T01:32:03.218Z,102253.78
2023-04-16T01:34:35.868Z,102260.44
2023-04-16T01:37:03.731Z,102261.72
2023-04-16T01:39:30.368Z,102254.09
2023-04-16T01:41:57.523Z,102253.34
2023-04-16T01:44:23.940Z,102253.56
2023-04-16T01:46:50.424Z,102254.56
2023-04-16T01:49:16.918Z,102252.47
2023-04-16T01:51:43.919Z,102256.22
2023-04-16T01:54:10.520Z,102259.38
2023-04-16T01:56:37.020Z,102254.69
2023-04-16T01:59:03.464Z,102254.38
2023-04-16T02:01:35.932Z,102258.75
2023-04-16T02:04:03.205Z,102254.09
2023-04-16T02:06:30.512Z,102252.25
2023-04-16T02:08:56.929Z,102251.31
2023-04-16T02:11:24.759Z,102261.50
2023-04-16T02:13:51.199Z,102262.34
2023-04-16T02:16:18.616Z,102264.00
2023-04-16T02:18:50.354Z,102259.75
2023-04-16T02:21:20.134Z,102265.25
2023-04-16T02:23:47.857Z,102265.88
2023-04-16T02:26:14.338Z,102260.34
2023-04-16T02:28:41.406Z,102263.13
2023-04-16T02:31:10.230Z,102267.53
2023-04-16T02:33:41.761Z,102262.16
2023-04-16T02:36:10.478Z,102274.88
2023-04-16T02:38:37.511Z,102275.88
2023-04-16T02:41:04.072Z,102273.19
2023-04-16T02:43:30.581Z,102276.56
2023-04-16T02:45:59.195Z,102276.44
2023-04-16T02:48:25.742Z,102269.59
2023-04-16T02:50:52.166Z,102270.88
2023-04-16T02:53:19.170Z,102273.28
2023-04-16T02:55:55.166Z,102281.53
2023-04-16T02:58:23.960Z,102276.78
2023-04-16T03:00:51.548Z,102273.38
2023-04-16T03:03:18.397Z,102283.53
2023-04-16T03:05:44.834Z,102284.69
2023-04-16T03:08:11.441Z,102285.13
2023-04-16T03:10:37.983Z,102289.78
2023-04-16T03:13:05.077Z,102286.72
2023-04-16T03:15:31.613Z,102296.88
2023-04-16T03:17:58.148Z,102297.09
2023-04-16T03:20:24.703Z,102301.34
2023-04-16T03:22:52.569Z,102297.81
2023-04-16T03:25:19.292Z,102293.00
2023-04-16T03:27:45.706Z,102298.66
2023-04-16T03:30:14.288Z,102289.66
2023-04-16T03:32:41.343Z,102293.03
2023-04-16T03:35:08.991Z,102293.88
2023-04-16T03:37:37.081Z,102294.19
2023-04-16T03:40:05.783Z,102287.41
2023-04-16T03:42:32.348Z,102292.47
2023-04-16T03:44:59.315Z,102290.78
2023-04-16T03:47:26.295Z,102295.16
2023-04-16T03:49:56.288Z,102298.16
2023-04-16T03:52:22.706Z,102289.84
2023-04-16T03:54:49.144Z,102297.28
2023-04-16T03:57:27.096Z,102294.19
2023-04-16T03:59:57.740Z,102296.56
2023-04-16T04:02:27.194Z,102295.88
2023-04-16T04:04:53.915Z,102300.25
2023-04-16T04:07:20.476Z,102297.16
2023-04-16T04:09:46.908Z,102297.16
2023-04-16T04:12:14.847Z,102297.84
2023-04-16T04:14:42.870Z,102297.28
2023-04-16T04:17:09.354Z,102292.53
2023-04-16T04:19:35.906Z,102292.13
2023-04-16T04:22:03.482Z,102289.72
2023-04-16T04:24:29.915Z,102297.63
2023-04-16T04:26:57.506Z,102300.47
2023-04-16T04:29:24.139Z,102298.47
2023-04-16T04:31:50.756Z,102305.78
2023-04-16T04:34:17.387Z,102300.59
2023-04-16T04:36:44.198Z,102305.41
2023-04-16T04:39:12.397Z,102303.84
2023-04-16T04:41:40.801Z,102308.38
2023-04-16T04:44:07.197Z,102313.91
2023-04-16T04:46:33.911Z,102305.44
2023-04-16T04:49:00.504Z,102309.53
2023-04-16T04:51:27.062Z,102312.31
2023-04-16T04:53:53.544Z,102316.41
2023-04-16T04:56:20.837Z,102318.25
2023-04-16T04:58:50.206Z,102316.25
2023-04-16T05:01:19.914Z,102323.03
2023-04-16T05:03:46.491Z,102322.84
2023-04-16T05:06:12.993Z,102327.81
2023-04-16T05:08:39.467Z,102330.19
2023-04-16T05:11:06.005Z,102329.50
2023-04-16T05:13:32.472Z,102321.78
2023-04-16T05:15:59.614Z,102330.53
2023-04-16T05:18:26.620Z,102327.00
2023-04-16T05:20:53.094Z,102332.06
2023-04-16T05:23:19.537Z,102333.50
2023-04-16T05:25:45.964Z,102329.00
2023-04-16T05:28:12.369Z,102326.31
2023-04-16T05:30:38.857Z,102330.00
2023-04-16T05:33:05.712Z,102343.59
2023-04-16T05:35:32.153Z,102341.88
2023-04-16T05:37:58.583Z,102328.59
2023-04-16T05:40:25.035Z,102344.13
2023-04-16T05:42:51.508Z,102341.53
2023-04-16T05:45:17.938Z,102344.78
2023-04-16T05:47:44.509Z,102347.34
2023-04-16T05:50:11.146Z,102351.00
2023-04-16T05:52:38.129Z,102357.53
2023-04-16T05:55:05.402Z,102353.72
2023-04-16T05:57:32.801Z,102349.75
2023-04-16T05:59:59.264Z,102354.13
2023-04-16T06:02:25.997Z,102356.69
2023-04-16T06:04:52.488Z,102360.78
2023-04-16T06:07:18.898Z,102360.66
2023-04-16T06:09:45.666Z,102357.00
2023-04-16T06:12:12.258Z,102363.66
2023-04-16T06:14:38.646Z,102368.88
2023-04-16T06:17:05.020Z,102371.13
2023-04-16T06:19:31.377Z,102366.88
2023-04-16T06:21:57.883Z,102365.47
2023-04-16T06:24:24.372Z,102362.78
2023-04-16T06:26:50.934Z,102378.06
2023-04-16T06:29:17.307Z,102377.91
2023-04-16T06:31:43.814Z,102379.75
2023-04-16T06:34:10.566Z,102382.28
2023-04-16T06:36:37.576Z,102380.88
2023-04-16T06:39:04.139Z,102380.19
2023-04-16T06:41:30.763Z,102389.25
2023-04-16T06:43:57.171Z,102390.63
2023-04-16T06:46:23.752Z,102383.13
2023-04-16T06:48:50.408Z,102389.75
2023-04-16T06:51:16.846Z,102395.00
2023-04-16T06:53:43.337Z,102392.44
2023-04-16T06:56:09.758Z,102398.38
2023-04-16T06:58:36.303Z,102392.72
2023-04-16T07:01:02.928Z,102400.78
2023-04-16T07:03:29.505Z,102401.91
2023-04-16T07:05:56.625Z,102395.13
2023-04-16T07:08:23.069Z,102392.44
2023-04-16T07:10:49.542Z,102402.22
2023-04-16T07:13:16.052Z,102408.84
2023-04-16T07:15:42.476Z,102406.31
2023-04-16T07:18:09.391Z,102403.19
2023-04-16T07:20:36.314Z,102406.75
2023-04-16T07:23:02.730Z,102403.06
2023-04-16T07:25:29.181Z,102405.31
2023-04-16T07:27:55.609Z,102409.84
2023-04-16T07:30:22.024Z,102409.72
2023-04-16T07:32:48.540Z,102416.34
2023-04-16T07:35:15.015Z,102410.69
2023-04-16T07:37:41.522Z,102422.28
2023-04-16T07:40:09.708Z,102420.88
2023-04-16T07:42:36.211Z,102419.31
2023-04-16T07:45:02.665Z,102428.91
2023-04-16T07:47:29.082Z,102427.47
2023-04-16T07:49:55.503Z,102428.19
2023-04-16T07:52:21.884Z,102434.41
2023-04-16T07:54:48.391Z,102436.69
2023-04-16T07:57:14.810Z,102436.97
2023-04-16T07:59:41.301Z,102436.97
2023-04-16T08:02:13.411Z,102435.28
2023-04-16T08:04:41.795Z,102441.22
2023-04-16T08:07:08.500Z,102443.63
2023-04-16T08:09:36.080Z,102435.28
2023-04-16T08:12:03.361Z,102438.41
2023-04-16T08:14:29.751Z,102435.84
2023-04-16T08:16:56.420Z,102447.84
2023-04-16T08:19:22.839Z,102445.16
2023-04-16T08:21:49.290Z,102454.06
2023-04-16T08:24:15.709Z,102441.34
2023-04-16T08:26:42.088Z,102455.63
2023-04-16T08:29:08.840Z,102455.91
2023-04-16T08:31:35.450Z,102451.78
2023-04-16T08:34:01.918Z,102457.88
2023-04-16T08:36:28.386Z,102457.03
2023-04-16T08:38:54.776Z,102460.97
2023-04-16T08:41:22.054Z,102463.78
2023-04-16T08:43:51.593Z,102470.56
2023-04-16T08:46:22.681Z,102473.97
2023-04-16T08:48:49.873Z,102476.25
2023-04-16T08:51:18.634Z,102480.72
2023-04-16T08:54:02.804Z,102490.50
2023-04-16T08:56:31.642Z,102479.50
2023-04-16T08:59:00.939Z,102487.97
2023-04-16T09:01:28.173Z,102490.78
2023-04-16T09:03:55.664Z,102498.56
2023-04-16T09:06:22.456Z,102495.44
2023-04-16T09:08:49.586Z,102482.19
2023-04-16T09:11:18.278Z,102498.84
2023-04-16T09:13:46.533Z,102488.09
2023-04-16T09:16:14.095Z,102494.72
2023-04-16T09:18:41.343Z,102501.25
2023-04-16T09:21:10.740Z,102490.63
2023-04-16T09:23:38.655Z,102496.72
2023-04-16T09:26:05.954Z,102491.75
2023-04-16T09:28:58.668Z,102499.09
2023-04-16T09:31:25.319Z,102507.16
2023-04-16T09:34:02.311Z,102497.97
2023-04-16T09:36:28.966Z,102507.44
2023-04-16T09:38:57.615Z,102510.41
2023-04-16T09:41:27.254Z,102511.66
2023-04-16T09:43:57.587Z,102515.19
2023-04-16T09:46:25.604Z,102525.09
2023-04-16T09:48:52.038Z,102514.78
2023-04-16T09:51:18.632Z,102523.56
2023-04-16T09:53:45.575Z,102519.03
2023-04-16T09:56:12.946Z,102520.00
2023-04-16T09:58:39.526Z,102522.69
2023-04-16T10:01:07.306Z,102521.72
2023-04-16T10:03:36.086Z,102518.31
2023-04-16T10:06:18.472Z,102527.94
2023-04-16T10:08:52.524Z,102524.25
2023-04-16T10:11:20.422Z,102523.97
2023-04-16T10:13:47.403Z,102526.50
2023-04-16T10:16:14.005Z,102535.41
2023-04-16T10:18:43.419Z,102532.28
2023-04-16T10:21:15.298Z,102543.03
2023-04-16T10:23:43.221Z,102543.31
2023-04-16T10:26:09.758Z,102539.50
2023-04-16T10:28:37.005Z,102545.28
2023-04-16T10:31:07.362Z,102540.06
2023-04-16T10:33:36.333Z,102540.66
2023-04-16T10:36:14.492Z,102546.88
2023-04-16T10:38:45.614Z,102548.41
2023-04-16T10:41:12.307Z,102553.09
2023-04-16T10:43:44.215Z,102540.06
2023-04-16T10:46:31.310Z,102549.84
2023-04-16T10:49:02.680Z,102546.03
2023-04-16T10:51:36.442Z,102547.13
2023-04-16T10:54:08.836Z,102550.53
2023-04-16T10:56:36.935Z,102543.31
2023-04-16T10:59:07.664Z,102544.03
2023-04-16T11:01:41.742Z,102546.28
2023-04-16T11:04:20.445Z,102538.59
2023-04-16T11:07:16.418Z,102541.69
2023-04-16T11:10:05.199Z,102541.81
2023-04-16T11:12:40.355Z,102533.44
2023-04-16T11:15:11.696Z,102535.84
2023-04-16T11:17:40.430Z,102535.69
2023-04-16T11:20:19.231Z,102529.63
2023-04-16T11:22:54.848Z,102540.53
2023-04-16T11:25:29.698Z,102539.56
2023-04-16T11:27:58.664Z,102541.22
2023-04-16T11:30:33.980Z,102529.19
2023-04-16T11:33:04.702Z,102537.94
2023-04-16T11:35:31.415Z,102543.03
2023-04-16T11:37:58.502Z,102549.31
2023-04-16T11:40:29.195Z,102550.88
2023-04-16T11:42:55.660Z,102547.75
2023-04-16T11:45:22.094Z,102553.41
2023-04-16T11:47:55.151Z,102547.13
2023-04-16T11:50:24.003Z,102542.00
2023-04-16T11:52:52.293Z,102548.22
2023-04-16T11:55:19.794Z,102545.91
2023-04-16T11:57:46.288Z,102543.63
2023-04-16T12:00:14.174Z,102541.34
2023-04-16T12:02:51.722Z,102540.19
2023-04-16T12:05:35.896Z,102549.09
2023-04-16T12:08:07.178Z,102545.84
2023-04-16T12:10:35.802Z,102544.88
2023-04-16T12:13:12.654Z,102552.25
2023-04-16T12:15:48.917Z,102555.03
2023-04-16T12:18:16.581Z,102547.38
2023-04-16T12:20:44.334Z,102552.72
2023-04-16T12:23:22.143Z,102545.56
2023-04-16T12:25:50.003Z,102556.59
2023-04-16T12:28:27.651Z,102554.44
2023-04-16T12:30:54.153Z,102554.13
2023-04-16T12:33:21.170Z,102554.19
2023-04-16T12:35:47.753Z,102549.38
2023-04-16T12:38:15.317Z,102552.84
2023-04-16T12:40:41.856Z,102549.81
2023-04-16T12:43:10.443Z,102556.22
2023-04-16T12:45:38.157Z,102554.53
2023-04-16T12:48:04.852Z,102553.06
2023-04-16T12:50:31.438Z,102558.44
2023-04-16T12:52:58.139Z,102558.28
2023-04-16T12:55:25.083Z,102560.69
2023-04-16T12:57:52.936Z,102556.13
2023-04-16T13:00:20.511Z,102551.44
2023-04-16T13:02:47.384Z,102557.69
2023-04-16T13:05:16.529Z,102566.44
2023-04-16T13:07:43.107Z,102555.53
2023-04-16T13:10:09.994Z,102558.78
2023-04-16T13:12:36.662Z,102553.59
2023-04-16T13:15:03.151Z,102557.75
2023-04-16T13:17:29.603Z,102557.81
2023-04-16T13:19:56.103Z,102553.25
2023-04-16T13:22:22.569Z,102550.84
2023-04-16T13:24:49.015Z,102551.59
2023-04-16T13:27:16.816Z,102549.97
2023-04-16T13:29:43.256Z,102553.97
2023-04-16T13:32:09.643Z,102558.94
2023-04-16T13:34:36.142Z,102557.44
2023-04-16T13:37:02.508Z,102556.06
2023-04-16T13:39:28.945Z,102563.38
2023-04-16T13:41:55.479Z,102558.22
2023-04-16T13:44:21.932Z,102564.91
2023-04-16T13:46:48.323Z,102562.66
2023-04-16T13:49:14.903Z,102553.81
2023-04-16T13:51:44.617Z,102554.44
2023-04-16T13:54:11.251Z,102550.91
2023-04-16T13:56:37.833Z,102549.38
2023-04-16T13:59:04.280Z,102548.50
2023-04-16T14:01:30.900Z,102550.16
2023-04-16T14:03:57.367Z,102555.84
2023-04-16T14:06:23.819Z,102560.59
2023-04-16T14:08:50.306Z,102555.75
2023-04-16T14:11:16.726Z,102557.13
2023-04-16T14:13:43.161Z,102563.59
2023-04-16T14:16:09.544Z,102555.97
2023-04-16T14:18:36.329Z,102555.69
2023-04-16T14:21:02.810Z,102558.38
2023-04-16T14:23:29.260Z,102558.38
2023-04-16T14:25:56.107Z,102558.84
2023-04-16T14:28:22.547Z,102557.84
2023-04-16T14:30:48.948Z,102557.66
2023-04-16T14:33:15.551Z,102555.97
2023-04-16T14:35:41.994Z,102565.91
2023-04-16T14:38:08.526Z,102561.31
2023-04-16T14:40:35.203Z,102560.28
2023-04-16T14:43:01.699Z,102562.50
2023-04-16T14:45:29.928Z,102565.63
2023-04-16T14:47:56.991Z,102560.91
2023-04-16T14:50:23.543Z,102554.38
2023-04-16T14:52:50.682Z,102562.59
2023-04-16T14:55:17.162Z,102554.38
2023-04-16T14:57:43.674Z,102556.91
2023-04-16T15:00:11.869Z,102560.06
2023-04-16T15:02:38.568Z,102561.69
2023-04-16T15:05:05.528Z,102558.13
2023-04-16T15:07:32.499Z,102557.97
2023-04-16T15:09:58.974Z,102560.84
2023-04-16T15:12:26.424Z,102567.91
2023-04-16T15:14:52.825Z,102559.16
2023-04-16T15:17:19.691Z,102563.53
2023-04-16T15:19:46.439Z,102563.22
2023-04-16T15:22:14.676Z,102558.59
2023-04-16T15:24:41.146Z,102561.53
2023-04-16T15:27:11.117Z,102550.44
2023-04-16T15:29:38.272Z,102550.16
2023-04-16T15:32:04.817Z,102550.34
2023-04-16T15:34:31.274Z,102551.75
2023-04-16T15:36:57.804Z,102545.81
2023-04-16T15:39:24.176Z,102555.44
2023-04-16T15:42:00.703Z,102547.53
2023-04-16T15:44:28.110Z,102551.06
2023-04-16T15:46:54.588Z,102546.88
2023-04-16T15:49:20.974Z,102555.50
2023-04-16T15:51:47.447Z,102558.03
2023-04-16T15:54:13.972Z,102557.38
2023-04-16T15:56:40.576Z,102555.81
2023-04-16T15:59:06.949Z,102553.75
2023-04-16T16:01:33.425Z,102562.38
2023-04-16T16:04:07.145Z,102553.13
2023-04-16T16:06:33.825Z,102545.81
2023-04-16T16:09:00.325Z,102547.91
2023-04-16T16:11:27.325Z,102547.06
2023-04-16T16:13:53.791Z,102553.13
2023-04-16T16:16:21.684Z,102543.59
2023-04-16T16:18:48.291Z,102556.06
2023-04-16T16:21:14.705Z,102549.38
2023-04-16T16:23:41.234Z,102558.69
2023-04-16T16:26:07.724Z,102550.91
2023-04-16T16:28:37.404Z,102555.75
2023-04-16T16:31:05.838Z,102556.38
2023-04-16T16:33:32.429Z,102559.22
2023-04-16T16:35:58.840Z,102562.22
2023-04-16T16:38:25.720Z,102566.06
2023-04-16T16:40:52.157Z,102564.09
2023-04-16T16:43:18.513Z,102560.50
2023-04-16T16:45:44.967Z,102566.91
2023-04-16T16:48:11.383Z,102561.97
2023-04-16T16:50:37.858Z,102565.81
2023-04-16T16:53:04.451Z,102563.75
2023-04-16T16:55:31.185Z,102567.13
2023-04-16T16:57:58.412Z,102572.84
2023-04-16T17:00:24.849Z,102568.03
2023-04-16T17:02:52.059Z,102567.28
2023-04-16T17:05:18.700Z,102566.44
2023-04-16T17:07:45.783Z,102566.84
2023-04-16T17:10:22.344Z,102570.06
2023-04-16T17:12:50.408Z,102571.38
2023-04-16T17:15:19.663Z,102566.06
2023-04-16T17:17:47.869Z,102571.19
2023-04-16T17:20:14.325Z,102566.38
2023-04-16T17:22:40.855Z,102568.03
2023-04-16T17:25:08.016Z,102575.75
2023-04-16T17:27:34.767Z,102579.03
2023-04-16T17:30:02.412Z,102584.13
2023-04-16T17:32:30.037Z,102588.19
2023-04-16T17:34:56.798Z,102581.44
2023-04-16T17:37:23.481Z,102574.19
2023-04-16T17:39:50.098Z,102578.34
2023-04-16T17:42:17.008Z,102582.78
2023-04-16T17:44:43.400Z,102576.00
2023-04-16T17:47:10.048Z,102582.94
2023-04-16T17:49:36.478Z,102583.47
2023-04-16T17:52:03.030Z,102586.31
2023-04-16T17:54:29.520Z,102595.41
2023-04-16T17:56:57.553Z,102585.31
2023-04-16T17:59:23.984Z,102586.88
2023-04-16T18:01:50.551Z,102592.66
2023-04-16T18:04:17.510Z,102596.09
2023-04-16T18:06:44.304Z,102602.94
2023-04-16T18:09:11.275Z,102602.66
2023-04-16T18:11:38.052Z,102608.31
2023-04-16T18:14:04.458Z,102610.28
2023-04-16T18:16:30.951Z,102623.06
2023-04-16T18:18:57.579Z,102621.06
2023-04-16T18:21:23.986Z,102633.50
2023-04-16T18:23:50.403Z,102624.38
2023-04-16T18:26:20.462Z,102625.22
2023-04-16T18:28:48.637Z,102624.19
2023-04-16T18:31:15.333Z,102631.84
2023-04-16T18:33:55.471Z,102635.97
2023-04-16T18:36:23.590Z,102636.81
2023-04-16T18:38:59.972Z,102636.38
2023-04-16T18:41:29.027Z,102634.53
2023-04-16T18:43:55.541Z,102627.91
2023-04-16T18:46:22.105Z,102639.09
2023-04-16T18:48:48.542Z,102645.78
2023-04-16T18:51:16.275Z,102654.16
2023-04-16T18:53:44.480Z,102646.97
2023-04-16T18:56:11.576Z,102640.59
2023-04-16T18:58:38.094Z,102650.47
2023-04-16T19:01:05.236Z,102643.97
2023-04-16T19:03:31.842Z,102646.66
2023-04-16T19:05:58.371Z,102659.41
2023-04-16T19:08:24.799Z,102659.53
2023-04-16T19:10:51.292Z,102660.84
2023-04-16T19:13:17.824Z,102665.78
2023-04-16T19:15:44.251Z,102663.94
2023-04-16T19:18:10.800Z,102665.78
2023-04-16T19:20:37.739Z,102678.38
2023-04-16T19:23:05.545Z,102669.63
2023-04-16T19:25:32.362Z,102676.13
2023-04-16T19:27:58.831Z,102669.91
2023-04-16T19:30:25.574Z,102674.56
2023-04-16T19:32:55.064Z,102669.06
2023-04-16T19:35:21.965Z,102673.03
2023-04-16T19:37:48.377Z,102674.31
2023-04-16T19:40:14.868Z,102678.69
2023-04-16T19:42:41.387Z,102685.19
2023-04-16T19:45:08.084Z,102687.88
2023-04-16T19:47:34.518Z,102682.34
2023-04-16T19:50:00.949Z,102685.31
2023-04-16T19:52:27.443Z,102666.78
2023-04-16T19:54:53.846Z,102677.09
2023-04-16T19:57:20.315Z,102676.09
2023-04-16T19:59:46.763Z,102678.66
2023-04-16T20:02:13.263Z,102680.75
2023-04-16T20:04:39.732Z,102677.09
2023-04-16T20:07:06.367Z,102676.94
2023-04-16T20:09:32.878Z,102673.69
2023-04-16T20:11:59.263Z,102668.19
2023-04-16T20:14:25.877Z,102670.19
2023-04-16T20:16:52.758Z,102676.81
2023-04-16T20:19:19.494Z,102676.66
2023-04-16T20:21:46.062Z,102675.69
2023-04-16T20:24:12.554Z,102677.09
2023-04-16T20:26:38.946Z,102671.44
2023-04-16T20:29:05.398Z,102668.47
2023-04-16T20:31:31.845Z,102663.53
2023-04-16T20:33:58.237Z,102667.66
2023-04-16T20:36:24.648Z,102666.09
2023-04-16T20:38:53.811Z,102667.50
2023-04-16T20:41:21.262Z,102673.31
2023-04-16T20:43:50.176Z,102671.47
2023-04-16T20:46:17.622Z,102671.03
2023-04-16T20:48:44.434Z,102665.97
2023-04-16T20:51:10.912Z,102665.25
2023-04-16T20:53:37.712Z,102662.72
2023-04-16T20:56:04.413Z,102664.41
2023-04-16T20:58:30.815Z,102669.66
2023-04-16T21:00:57.804Z,102667.81
2023-04-16T21:03:24.691Z,102663.03
2023-04-16T21:05:55.642Z,102664.88
2023-04-16T21:08:23.233Z,102664.88
2023-04-16T21:10:50.368Z,102665.13
2023-04-16T21:13:16.987Z,102665.13
2023-04-16T21:15:44.962Z,102664.56
2023-04-16T21:18:12.023Z,102665.72
2023-04-16T21:20:39.402Z,102664.31
2023-04-16T21:23:06.319Z,102662.59
2023-04-16T21:25:33.509Z,102663.31
2023-04-16T21:28:00.034Z,102668.53
2023-04-16T21:30:26.420Z,102671.81
2023-04-16T21:32:52.905Z,102658.38
2023-04-16T21:35:19.529Z,102661.63
2023-04-16T21:37:46.034Z,102662.31
2023-04-16T21:40:12.524Z,102659.91
2023-04-16T21:42:42.407Z,102665.13
2023-04-16T21:45:10.302Z,102661.19
2023-04-16T21:47:37.469Z,102659.63
2023-04-16T21:50:04.297Z,102663.31
2023-04-16T21:52:32.733Z,102657.66
2023-04-16T21:54:59.977Z,102659.50
2023-04-16T21:57:26.387Z,102659.63
2023-04-16T21:59:52.831Z,102660.63
2023-04-16T22:02:19.379Z,102664.59
2023-04-16T22:04:45.879Z,102661.75
2023-04-16T22:07:12.318Z,102660.19
2023-04-16T22:09:38.861Z,102658.94
2023-04-16T22:12:11.909Z,102659.19
2023-04-16T22:14:44.109Z,102658.50
2023-04-16T22:17:17.069Z,102662.59
2023-04-16T22:19:44.509Z,102661.63
2023-04-16T22:22:11.132Z,102656.38
2023-04-16T22:24:37.541Z,102657.94
2023-04-16T22:27:04.154Z,102653.41
2023-04-16T22:29:30.568Z,102651.88
2023-04-16T22:31:57.275Z,102648.19
2023-04-16T22:34:23.738Z,102656.25
2023-04-16T22:36:50.172Z,102659.63
2023-04-16T22:39:16.610Z,102661.03
2023-04-16T22:41:42.960Z,102653.28
2023-04-16T22:44:09.418Z,102658.09
2023-04-16T22:46:36.215Z,102653.28
2023-04-16T22:49:02.778Z,102650.59
2023-04-16T22:51:30.054Z,102650.44
2023-04-16T22:53:56.465Z,102654.53
2023-04-16T22:56:28.411Z,102654.69
2023-04-16T22:58:54.956Z,102650.41
2023-04-16T23:01:21.593Z,102650.16
2023-04-16T23:03:48.188Z,102652.38
2023-04-16T23:06:14.709Z,102652.69
2023-04-16T23:08:41.072Z,102652.69
2023-04-16T23:11:07.475Z,102656.78
2023-04-16T23:13:33.953Z,102650.41
2023-04-16T23:16:00.541Z,102654.38
2023-04-16T23:18:27.087Z,102661.75
2023-04-16T23:20:53.833Z,102660.47
2023-04-16T23:23:20.413Z,102662.00
2023-04-16T23:25:46.840Z,102663.13
2023-04-16T23:28:13.330Z,102659.59
2023-04-16T23:30:39.714Z,102662.56
2023-04-16T23:33:06.595Z,102661.56
2023-04-16T23:35:33.159Z,102662.13
2023-04-16T23:37:59.534Z,102666.06
2023-04-16T23:40:26.065Z,102676.22
2023-04-16T23:42:52.483Z,102673.69
2023-04-16T23:45:19.006Z,102665.34
2023-04-16T23:47:45.720Z,102670.59
2023-04-16T23:50:12.370Z,102681.34
2023-04-16T23:52:38.863Z,102670.19
2023-04-16T23:55:05.688Z,102667.66
2023-04-16T23:57:32.169Z,102665.50
2023-04-16T23:59:58.627Z,102661.44
